createdAt,value
2018-08-19T06:21:35.384Z,12.40
2018-08-19T06:24:03.669Z,11.83
2018-08-19T06:26:34.202Z,12.25
2018-08-19T06:29:02.491Z,10.75
2018-08-19T06:31:30.829Z,10.05
2018-08-19T06:33:59.098Z,10.23
2018-08-19T06:36:27.427Z,12.50
2018-08-19T06:38:55.711Z,12.30
2018-08-19T06:41:24.012Z,10.18
2018-08-19T06:43:52.318Z,10.48
2018-08-19T06:46:20.690Z,10.53
2018-08-19T06:48:48.968Z,9.83
2018-08-19T06:51:17.331Z,9.95
2018-08-19T06:53:45.656Z,10.28
2018-08-19T06:56:13.934Z,10.23
2018-08-19T06:58:42.248Z,10.35
2018-08-19T07:01:10.481Z,10.70
2018-08-19T07:03:43.307Z,10.85
2018-08-19T07:06:11.870Z,9.55
2018-08-19T07:08:40.144Z,8.60
2018-08-19T07:11:08.411Z,9.03
2018-08-19T07:13:36.710Z,8.85
2018-08-19T07:16:04.994Z,8.73
2018-08-19T07:18:33.557Z,7.75
2018-08-19T07:21:01.850Z,8.00
2018-08-19T07:23:30.097Z,8.23
2018-08-19T07:25:58.426Z,6.72
2018-08-19T07:28:26.740Z,7.60
2018-08-19T07:30:55.074Z,6.30
2018-08-19T07:33:23.486Z,6.30
2018-08-19T07:35:51.772Z,6.30
2018-08-19T07:38:20.061Z,6.00
2018-08-19T07:40:48.351Z,5.90
2018-08-19T07:43:16.629Z,5.95
2018-08-19T07:45:44.923Z,6.10
2018-08-19T07:48:13.210Z,5.90
2018-08-19T07:50:41.445Z,6.55
2018-08-19T07:53:09.765Z,5.97
2018-08-19T07:55:38.053Z,5.50
2018-08-19T07:58:06.415Z,4.95
2018-08-19T08:00:38.745Z,4.78
2018-08-19T08:03:07.215Z,5.45
2018-08-19T08:05:40.841Z,5.30
2018-08-19T08:08:09.493Z,5.55
2018-08-19T08:10:38.695Z,4.35
2018-08-19T08:13:12.084Z,5.10
2018-08-19T08:15:49.516Z,5.10
2018-08-19T08:18:17.776Z,4.50
2018-08-19T08:20:46.095Z,5.25
2018-08-19T08:23:19.736Z,5.20
2018-08-19T08:25:48.403Z,5.10
2018-08-19T08:28:16.702Z,5.08
2018-08-19T08:30:45.037Z,5.53
2018-08-19T08:33:13.310Z,4.90
2018-08-19T08:35:48.641Z,5.45
2018-08-19T08:38:16.983Z,5.85
2018-08-19T08:40:45.335Z,5.08
2018-08-19T08:43:13.526Z,5.08
2018-08-19T08:45:43.119Z,4.75
2018-08-19T08:48:11.761Z,5.20
2018-08-19T08:50:40.263Z,5.17
2018-08-19T08:53:08.542Z,4.97
2018-08-19T08:55:36.811Z,4.67
2018-08-19T08:58:05.223Z,5.70
2018-08-19T09:00:33.538Z,5.30
2018-08-19T09:03:01.998Z,5.33
2018-08-19T09:05:30.383Z,5.33
2018-08-19T09:07:58.692Z,4.87
2018-08-19T09:10:27.015Z,4.92
2018-08-19T09:12:55.991Z,5.58
2018-08-19T09:15:24.338Z,6.33
2018-08-19T09:17:52.750Z,6.45
2018-08-19T09:20:21.042Z,7.37
2018-08-19T09:22:49.557Z,7.55
2018-08-19T09:25:17.788Z,7.10
2018-08-19T09:27:46.056Z,7.08
2018-08-19T09:30:23.768Z,7.90
2018-08-19T09:32:58.957Z,7.10
2018-08-19T09:35:32.406Z,7.72
2018-08-19T09:38:06.132Z,7.35
2018-08-19T09:40:35.220Z,7.03
2018-08-19T09:43:04.085Z,7.83
2018-08-19T09:45:32.573Z,7.85
2018-08-19T09:48:01.466Z,7.60
2018-08-19T09:50:29.639Z,8.30
2018-08-19T09:52:57.922Z,8.03
2018-08-19T09:56:32.107Z,7.17
2018-08-19T09:59:03.308Z,7.05
2018-08-19T10:01:37.086Z,6.62
2018-08-19T10:04:19.497Z,6.90
2018-08-19T10:06:50.260Z,7.03
2018-08-19T10:09:18.582Z,6.22
2018-08-19T10:11:46.868Z,6.70
2018-08-19T10:14:15.142Z,7.33
2018-08-19T10:16:44.712Z,6.60
2018-08-19T10:19:13.956Z,20.85
2018-08-19T10:21:42.413Z,28.00
2018-08-19T10:24:23.110Z,23.70
2018-08-19T10:26:51.435Z,9.93
2018-08-19T10:29:19.684Z,9.60
2018-08-19T10:31:57.407Z,8.63
2018-08-19T10:34:27.064Z,7.55
2018-08-19T10:36:55.984Z,8.00
2018-08-19T10:39:24.328Z,8.10
2018-08-19T10:41:52.815Z,7.97
2018-08-19T10:44:21.141Z,6.95
2018-08-19T10:46:49.433Z,7.22
2018-08-19T10:49:17.718Z,8.63
2018-08-19T10:51:46.748Z,7.87
2018-08-19T10:54:15.632Z,8.28
2018-08-19T10:56:43.897Z,7.83
2018-08-19T10:59:15.103Z,7.87
2018-08-19T11:01:43.522Z,8.33
2018-08-19T11:04:11.850Z,7.72
2018-08-19T11:06:41.493Z,7.80
2018-08-19T11:09:09.727Z,7.67
2018-08-19T11:11:37.996Z,8.38
2018-08-19T11:14:08.343Z,8.95
2018-08-19T11:16:36.705Z,8.58
2018-08-19T11:19:05.695Z,8.05
2018-08-19T11:21:40.277Z,9.33
2018-08-19T11:24:27.422Z,8.00
2018-08-19T11:27:00.980Z,8.38
2018-08-19T11:29:29.609Z,8.73
2018-08-19T11:31:57.945Z,7.83
2018-08-19T11:34:26.272Z,8.85
2018-08-19T11:36:54.552Z,8.75
2018-08-19T11:39:28.700Z,9.05
2018-08-19T11:41:58.471Z,8.60
2018-08-19T11:44:26.795Z,9.15
2018-08-19T11:46:55.030Z,8.90
2018-08-19T11:49:23.399Z,9.75
2018-08-19T11:51:56.884Z,9.23
2018-08-19T11:54:25.882Z,9.10
2018-08-19T11:57:01.530Z,9.70
2018-08-19T11:59:39.255Z,9.00
2018-08-19T12:02:09.284Z,9.78
2018-08-19T12:04:37.560Z,9.70
2018-08-19T12:07:05.906Z,8.75
2018-08-19T12:09:34.276Z,8.75
2018-08-19T12:12:02.593Z,8.75
2018-08-19T12:14:35.304Z,8.73
2018-08-19T12:17:07.352Z,9.15
2018-08-19T12:19:38.370Z,8.53
2018-08-19T12:22:07.048Z,9.15
2018-08-19T12:24:38.606Z,9.03
2018-08-19T12:27:08.504Z,8.43
2018-08-19T12:29:38.705Z,9.63
2018-08-19T12:32:13.460Z,9.13
2018-08-19T12:34:44.800Z,9.80
2018-08-19T12:37:14.249Z,8.98
2018-08-19T12:39:42.432Z,8.98
2018-08-19T12:42:10.799Z,8.68
2018-08-19T12:44:39.369Z,8.38
2018-08-19T12:47:15.164Z,8.93
2018-08-19T12:49:44.863Z,8.60
2018-08-19T12:52:17.250Z,9.18
2018-08-19T12:54:47.802Z,8.30
2018-08-19T12:57:16.392Z,8.55
2018-08-19T12:59:44.764Z,8.80
2018-08-19T13:02:13.094Z,8.73
2018-08-19T13:04:41.408Z,8.73
2018-08-19T13:07:11.304Z,8.10
2018-08-19T13:09:39.643Z,8.45
2018-08-19T13:12:10.572Z,8.58
2018-08-19T13:14:38.868Z,8.48
2018-08-19T13:17:07.434Z,8.13
2018-08-19T13:19:35.713Z,7.37
2018-08-19T13:22:04.206Z,8.50
2018-08-19T13:24:35.616Z,8.73
2018-08-19T13:27:04.299Z,9.33
2018-08-19T13:29:33.151Z,8.03
2018-08-19T13:32:01.438Z,7.72
2018-08-19T13:34:29.725Z,9.05
2018-08-19T13:36:58.467Z,8.00
2018-08-19T13:39:27.191Z,7.90
2018-08-19T13:41:55.768Z,8.30
2018-08-19T13:44:24.076Z,8.33
2018-08-19T13:46:52.417Z,8.45
2018-08-19T13:49:25.822Z,8.83
2018-08-19T13:51:54.124Z,8.38
2018-08-19T13:54:23.289Z,7.62
2018-08-19T13:56:51.668Z,8.25
2018-08-19T13:59:19.953Z,8.05
2018-08-19T14:01:48.294Z,7.92
2018-08-19T14:04:16.578Z,7.37
2018-08-19T14:06:45.505Z,8.13
2018-08-19T14:09:14.280Z,7.70
2018-08-19T14:11:42.656Z,7.08
2018-08-19T14:14:11.446Z,7.62
2018-08-19T14:16:39.767Z,8.23
2018-08-19T14:19:08.065Z,7.65
2018-08-19T14:21:36.370Z,8.75
2018-08-19T14:24:04.785Z,8.23
2018-08-19T14:26:33.548Z,8.28
2018-08-19T14:29:01.859Z,7.75
2018-08-19T14:31:30.792Z,8.13
2018-08-19T14:33:59.084Z,7.17
2018-08-19T14:36:27.471Z,7.78
2018-08-19T14:38:55.818Z,7.37
2018-08-19T14:41:24.126Z,8.20
2018-08-19T14:44:01.738Z,8.15
2018-08-19T14:46:31.001Z,7.37
2018-08-19T14:49:03.508Z,7.50
2018-08-19T14:52:07.626Z,7.80
2018-08-19T14:54:36.853Z,8.08
2018-08-19T14:57:05.138Z,7.53
2018-08-19T14:59:33.412Z,7.95
2018-08-19T15:02:01.736Z,7.95
2018-08-19T15:04:30.023Z,7.03
2018-08-19T15:06:58.296Z,7.08
2018-08-19T15:09:33.558Z,8.13
2018-08-19T15:12:09.831Z,7.70
2018-08-19T15:14:38.179Z,7.45
2018-08-19T15:17:07.800Z,7.47
2018-08-19T15:19:37.260Z,7.47
2018-08-19T15:22:05.545Z,7.37
2018-08-19T15:24:33.868Z,6.95
2018-08-19T15:27:02.176Z,6.40
2018-08-19T15:29:31.405Z,6.05
2018-08-19T15:32:01.259Z,6.72
2018-08-19T15:34:29.456Z,6.95
2018-08-19T15:36:57.733Z,6.65
2018-08-19T15:39:26.035Z,7.40
2018-08-19T15:41:54.283Z,6.80
2018-08-19T15:44:22.647Z,6.72
2018-08-19T15:46:51.005Z,7.03
2018-08-19T15:49:21.317Z,6.75
2018-08-19T15:51:49.686Z,7.15
2018-08-19T15:54:18.136Z,6.65
2018-08-19T15:56:46.430Z,6.83
2018-08-19T15:59:14.778Z,7.37
2018-08-19T16:01:43.086Z,7.10
2018-08-19T16:04:15.585Z,7.22
2018-08-19T16:06:45.460Z,7.50
2018-08-19T16:09:15.424Z,7.72
2018-08-19T16:11:44.080Z,6.87
2018-08-19T16:14:19.196Z,7.40
2018-08-19T16:16:47.538Z,7.03
2018-08-19T16:19:15.780Z,6.70
2018-08-19T16:21:47.746Z,6.78
2018-08-19T16:24:16.053Z,6.62
2018-08-19T16:26:44.796Z,7.22
2018-08-19T16:29:13.220Z,7.22
2018-08-19T16:31:41.527Z,7.20
2018-08-19T16:34:09.830Z,7.35
2018-08-19T16:36:38.151Z,7.33
2018-08-19T16:39:08.462Z,6.78
2018-08-19T16:41:36.776Z,7.50
2018-08-19T16:44:05.162Z,6.78
2018-08-19T16:46:33.497Z,7.33
2018-08-19T16:49:01.952Z,6.67
2018-08-19T16:51:30.235Z,7.85
2018-08-19T16:53:58.498Z,7.50
2018-08-19T16:56:26.778Z,7.08
2018-08-19T16:58:55.344Z,7.30
2018-08-19T17:01:23.628Z,7.17
2018-08-19T17:03:52.275Z,7.08
2018-08-19T17:06:20.605Z,7.28
2018-08-19T17:08:48.907Z,7.17
2018-08-19T17:11:17.251Z,7.75
2018-08-19T17:13:45.536Z,6.87
2018-08-19T17:16:13.920Z,7.53
2018-08-19T17:18:42.174Z,6.87
2018-08-19T17:21:10.489Z,6.75
2018-08-19T17:23:38.761Z,6.78
2018-08-19T17:26:14.768Z,6.85
2018-08-19T17:28:43.143Z,7.42
2018-08-19T17:31:11.395Z,7.47
2018-08-19T17:33:39.720Z,7.80
2018-08-19T17:36:08.011Z,7.00
2018-08-19T17:38:36.860Z,7.12
2018-08-19T17:41:05.489Z,7.72
2018-08-19T17:43:39.290Z,7.78
2018-08-19T17:46:10.380Z,8.10
2018-08-19T17:48:39.844Z,7.25
2018-08-19T17:51:20.389Z,7.33
2018-08-19T17:53:48.685Z,7.90
2018-08-19T17:56:17.147Z,7.05
2018-08-19T17:58:45.637Z,7.33
2018-08-19T18:01:14.122Z,7.58
2018-08-19T18:03:42.587Z,7.45
2018-08-19T18:06:10.841Z,7.50
2018-08-19T18:08:42.526Z,7.37
2018-08-19T18:11:10.846Z,7.78
2018-08-19T18:13:39.279Z,7.58
2018-08-19T18:16:07.566Z,7.70
2018-08-19T18:18:35.845Z,8.30
2018-08-19T18:21:04.817Z,8.10
2018-08-19T18:23:33.198Z,7.65
2018-08-19T18:26:01.463Z,8.15
2018-08-19T18:28:30.976Z,7.30
2018-08-19T18:31:09.279Z,7.67
2018-08-19T18:33:46.105Z,7.97
2018-08-19T18:36:14.402Z,7.25
2018-08-19T18:38:42.831Z,6.87
2018-08-19T18:41:16.408Z,8.18
2018-08-19T18:43:44.702Z,7.20
2018-08-19T18:46:12.996Z,7.62
2018-08-19T18:48:41.302Z,7.87
2018-08-19T18:51:09.627Z,8.00
2018-08-19T18:53:39.584Z,7.92
2018-08-19T18:56:08.262Z,7.28
2018-08-19T18:58:36.670Z,7.58
2018-08-19T19:01:04.917Z,7.30
2018-08-19T19:03:33.329Z,6.83
2018-08-19T19:06:01.574Z,8.10
2018-08-19T19:08:29.886Z,7.17
2018-08-19T19:11:06.803Z,7.83
2018-08-19T19:13:35.619Z,7.70
2018-08-19T19:16:03.935Z,7.10
2018-08-19T19:18:32.195Z,6.72
2018-08-19T19:21:01.430Z,6.90
2018-08-19T19:23:30.981Z,7.10
2018-08-19T19:25:59.508Z,7.35
2018-08-19T19:28:27.896Z,7.40
2018-08-19T19:31:01.786Z,7.22
2018-08-19T19:33:30.096Z,8.33
2018-08-19T19:36:03.781Z,6.92
2018-08-19T19:38:32.730Z,6.33
2018-08-19T19:41:06.127Z,6.75
2018-08-19T19:43:34.415Z,6.87
2018-08-19T19:46:02.697Z,7.12
2018-08-19T19:48:30.979Z,6.35
2018-08-19T19:50:59.275Z,7.67
2018-08-19T19:53:27.562Z,6.53
2018-08-19T19:56:00.193Z,6.83
2018-08-19T19:58:28.387Z,6.67
2018-08-19T20:00:56.700Z,6.28
2018-08-19T20:03:25.027Z,7.05
2018-08-19T20:05:53.311Z,6.58
2018-08-19T20:08:23.294Z,6.62
2018-08-19T20:10:51.609Z,5.92
2018-08-19T20:13:19.891Z,7.33
2018-08-19T20:15:48.220Z,6.47
2018-08-19T20:18:16.527Z,6.25
2018-08-19T20:20:44.882Z,6.60
2018-08-19T20:23:18.671Z,6.05
2018-08-19T20:25:47.015Z,6.97
2018-08-19T20:28:15.293Z,7.08
2018-08-19T20:30:43.686Z,7.30
2018-08-19T20:33:18.628Z,6.65
2018-08-19T20:35:47.340Z,5.95
2018-08-19T20:38:15.654Z,6.50
2018-08-19T20:40:43.996Z,6.45
2018-08-19T20:43:17.313Z,5.87
2018-08-19T20:45:46.008Z,6.83
2018-08-19T20:48:16.325Z,6.47
2018-08-19T20:50:44.706Z,6.70
2018-08-19T20:53:13.053Z,6.28
2018-08-19T20:55:41.382Z,5.95
2018-08-19T20:58:09.872Z,5.87
2018-08-19T21:00:38.423Z,6.80
2018-08-19T21:03:07.146Z,6.60
2018-08-19T21:05:35.694Z,6.78
2018-08-19T21:08:14.747Z,6.42
2018-08-19T21:10:44.253Z,6.28
2018-08-19T21:13:13.504Z,6.62
2018-08-19T21:15:43.279Z,7.00
2018-08-19T21:18:11.723Z,6.62
2018-08-19T21:20:40.123Z,7.25
2018-08-19T21:23:08.441Z,6.10
2018-08-19T21:26:13.619Z,6.70
2018-08-19T21:28:47.705Z,7.12
2018-08-19T21:31:16.140Z,7.47
2018-08-19T21:33:44.439Z,6.87
2018-08-19T21:36:12.760Z,7.10
2018-08-19T21:38:41.090Z,7.08
2018-08-19T21:41:09.546Z,6.30
2018-08-19T21:43:37.856Z,7.30
2018-08-19T21:46:06.168Z,6.70
2018-08-19T21:48:34.500Z,6.67
2018-08-19T21:51:02.737Z,6.55
2018-08-19T21:53:31.032Z,5.87
2018-08-19T21:55:59.319Z,7.05
2018-08-19T21:58:27.594Z,6.65
2018-08-19T22:00:59.362Z,7.92
2018-08-19T22:03:34.988Z,6.95
2018-08-19T22:06:06.993Z,7.20
2018-08-19T22:08:35.290Z,7.75
2018-08-19T22:11:03.571Z,6.87
2018-08-19T22:13:32.249Z,7.87
2018-08-19T22:16:00.556Z,8.13
2018-08-19T22:18:29.742Z,8.23
2018-08-19T22:21:09.819Z,8.83
2018-08-19T22:23:45.066Z,7.85
2018-08-19T22:26:14.446Z,8.45
2018-08-19T22:28:42.936Z,7.92
2018-08-19T22:31:23.824Z,7.70
2018-08-19T22:33:58.095Z,8.83
2018-08-19T22:36:26.590Z,8.88
2018-08-19T22:38:55.635Z,8.45
2018-08-19T22:41:27.262Z,8.20
2018-08-19T22:43:56.246Z,8.58
2018-08-19T22:46:25.089Z,8.05
2018-08-19T22:48:53.928Z,9.03
2018-08-19T22:51:22.288Z,8.40
2018-08-19T22:53:52.846Z,9.13
2018-08-19T22:56:21.626Z,9.43
2018-08-19T22:58:49.961Z,9.35
2018-08-19T23:01:18.288Z,9.70
2018-08-19T23:03:46.587Z,8.83
2018-08-19T23:06:14.916Z,9.25
2018-08-19T23:08:43.235Z,9.25
2018-08-19T23:11:11.638Z,8.70
2018-08-19T23:13:51.412Z,9.50
2018-08-19T23:16:21.959Z,9.70
2018-08-19T23:18:50.249Z,9.63
2018-08-19T23:21:18.544Z,8.43
2018-08-19T23:23:46.825Z,9.85
2018-08-19T23:26:15.387Z,8.98
2018-08-19T23:28:43.680Z,9.15
2018-08-19T23:31:11.969Z,10.23
2018-08-19T23:33:40.295Z,9.40
2018-08-19T23:36:08.557Z,10.43
2018-08-19T23:38:36.889Z,10.58
2018-08-19T23:41:05.234Z,10.28
2018-08-19T23:43:33.527Z,10.65
2018-08-19T23:46:01.853Z,10.18
2018-08-19T23:48:30.162Z,9.75
2018-08-19T23:50:58.468Z,9.85
2018-08-19T23:53:26.743Z,9.30
2018-08-19T23:55:55.024Z,9.93
2018-08-19T23:58:23.353Z,9.90
